Walmer, South Africa
Current Conditions -  °F | °C
As of 1:00 PM on Thursday 18 Dec 2014 (Local Time) from FAPE Reporting Station
Clear Clear  
Wind Chill: 75°   Ceiling: Unl
Heat Index: 75°   Visibility: 6mi
Dew Point: 59°   Wind: 18mph
Humidity: 57%   Direction: 220°SW
Pressure: 29.88"   Gusts: NA
Location:  33.98°S, 25.58°E
Report Text: FAPE 181100Z 22016KT CAVOK 24/15 Q1012 NOSIG
Loading
Personal Weather Stations






























Interactive Weather Map New forecast layout! Learn more

10-Day Weather Forecast

Advertisements
Track Severe Weather on mobile